Flight Track Log - Related Links

Times and Time Zones

All times are in EDT time to prevent confusion due to time zone crossing. See the N3715C flight status page for this flight to view local times or setup timezone preferences in your user account.

Time Position Orientation Groundspeed Altitude Reporting Facility
EDT Latitude Longitude Course Direction KTS MPH feet Rate Location/Type
Thu 04:29:08 PM 39.5722 -82.9475 42° Northeast 143 165 2,200  Level Indianapolis Center
Thu 04:30:09 PM 39.6050 -82.9092 42° Northeast 150 173 3,100 885 Climbing Indianapolis Center
Thu 04:31:10 PM 39.6414 -82.8825 29° Northeast 157 181 4,000 934 Climbing Indianapolis Center
Thu 04:32:11 PM 39.6753 -82.8553 32° Northeast 154 177 5,000 934 Climbing Indianapolis Center
Thu 04:33:12 PM 39.7056 -82.8247 38° Northeast 138 159 5,900 885 Climbing Indianapolis Center
Thu 04:34:13 PM 39.7375 -82.7969 34° Northeast 136 157 6,800 545 Climbing Indianapolis Center
Thu 04:35:24 PM 39.7656 -82.7497 52° Northeast 147 169 7,100 148 Climbing Indianapolis Center
Thu 04:36:15 PM 39.7983 -82.7086 44° Northeast 178 205 7,100 54 Level Indianapolis Center
Thu 04:37:15 PM 39.8322 -82.6594 48° Northeast 186 214 7,200  Climbing Indianapolis Center
Thu 04:38:17 PM 39.8625 -82.6069 53° Northeast 183 211 7,100 -49 Descending Indianapolis Center
Thu 04:39:17 PM 39.8911 -82.5458 59° Northeast 185 213 7,100  Level Indianapolis Center
Thu 04:40:34 PM 39.9197 -82.4753 62° Northeast 184 212 7,100 86 Level Indianapolis Center
Thu 04:41:36 PM 39.9456 -82.4178 60° Northeast 183 211 7,300 387 Climbing Indianapolis Center
Thu 04:42:38 PM 39.9719 -82.3669 56° Northeast 170 196 7,900 677 Climbing Indianapolis Center
Thu 04:43:40 PM 39.9964 -82.3128 59° Northeast 151 174 8,700 581 Climbing Indianapolis Center
Thu 04:44:42 PM 40.0119 -82.2664 66° East 140 161 9,100 194 Climbing Indianapolis Center
Thu 04:45:44 PM 40.0306 -82.2086 67° East 168 193 9,100  Level Indianapolis Center
Thu 04:46:46 PM 40.0478 -82.1456 70° East 182 209 9,100  Level Indianapolis Center
Thu 04:47:48 PM 40.0656 -82.0833 70° East 181 208 9,100  Level Indianapolis Center
Thu 04:48:50 PM 40.0900 -82.0233 62° Northeast 186 214 9,100  Level Indianapolis Center
Thu 04:49:52 PM 40.1300 -81.9792 40° Northeast 188 216 9,100  Level Indianapolis Center
Thu 04:50:55 PM 40.1822 -81.9439 27° Northeast 179 206 9,100 96 Level Indianapolis Center
Thu 04:51:57 PM 40.2222 -81.9014 39° Northeast 182 209 9,300 48 Climbing Indianapolis Center
Thu 04:52:59 PM 40.2647 -81.8772 23° Northeast 186 214 9,200 -290 Descending Indianapolis Center
Thu 04:54:01 PM 40.3117 -81.8214 42° Northeast 195 224 8,700 -435 Descending Indianapolis Center
Thu 04:55:03 PM 40.3578 -81.7764 37° Northeast 204 235 8,300 -581 Descending Indianapolis Center
Thu 04:56:05 PM 40.4111 -81.7492 21° North 204 235 7,500 -726 Descending Indianapolis Center
Thu 04:57:07 PM 40.4675 -81.7400 North 202 232 6,800 -677 Descending Indianapolis Center
Thu 04:58:09 PM 40.5214 -81.7281 10° North 195 224 6,100 -634 Descending Indianapolis Center
Thu 04:59:10 PM 40.5728 -81.7194 North 187 215 5,500 -683 Descending Indianapolis Center
Thu 05:00:12 PM 40.6225 -81.7214 358° North 178 205 4,700 -629 Descending Indianapolis Center
Thu 05:01:14 PM 40.6811 -81.7231 359° North 179 206 4,200 -532 Descending Indianapolis Center
Thu 05:02:16 PM 40.7281 -81.7303 353° North 172 198 3,600 -532 Descending Indianapolis Center
Thu 05:03:18 PM 40.7758 -81.7369 354° North 170 196 3,100 -290 Descending Indianapolis Center
Thu 05:04:20 PM 40.8225 -81.7344 North 168 193 3,000 -48 Descending Indianapolis Center
Thu 05:05:22 PM 40.8681 -81.7411 354° North 165 190 3,000 -48 Level Indianapolis Center
Thu 05:06:24 PM 40.9172 -81.7492 353° North 162 186 2,900 -97 Descending Indianapolis Center

Login

Don't have an account? Register now (free) for customized features, flight alerts, and more!